N89753 KOSU-KOSU
Flight info
| Callsign | N89753 |
|---|---|
| Flight time | 0h 3m |
| Altitude | 2000 |
| Route | CLSD TRFC |
| Aircraft | C152/L-V/S |
Departure
| Time | 2026-05-09 00:18 |
|---|---|
| Airport | The Ohio State University Airport - Don Scott Field (KOSU) |
Arrival
| Time | 2026-05-09 00:21 |
|---|---|
| Airport | The Ohio State University Airport - Don Scott Field (KOSU) |
| Time | Latitude | Longitude | Altitude | Speed | Heading |
|---|---|---|---|---|---|
| 2026-05-09 00:09 | 40.07579 | -83.07648 | 904 ft | 0 kts | 84° |
| 2026-05-09 00:13 | 40.07584 | -83.07621 | 839 ft | 10 kts | 72° |
| 2026-05-09 00:14 | 40.07609 | -83.07508 | 905 ft | 14 kts | 89° |
| 2026-05-09 00:14 | 40.07609 | -83.07373 | 903 ft | 16 kts | 89° |
| 2026-05-09 00:14 | 40.07616 | -83.07215 | 900 ft | 18 kts | 85° |
| 2026-05-09 00:14 | 40.07622 | -83.07045 | 901 ft | 19 kts | 88° |
| 2026-05-09 00:15 | 40.07629 | -83.06868 | 898 ft | 21 kts | 87° |
| 2026-05-09 00:15 | 40.07637 | -83.06673 | 895 ft | 22 kts | 86° |
| 2026-05-09 00:15 | 40.07646 | -83.06499 | 895 ft | 17 kts | 76° |
| 2026-05-09 00:15 | 40.07688 | -83.06385 | 893 ft | 10 kts | 4° |
| 2026-05-09 00:16 | 40.07703 | -83.06386 | 892 ft | 1 kts | 356° |
| 2026-05-09 00:16 | 40.07765 | -83.06395 | 891 ft | 11 kts | 339° |
| 2026-05-09 00:16 | 40.07785 | -83.06452 | 890 ft | 0 kts | 268° |
| 2026-05-09 00:16 | 40.07782 | -83.06496 | 890 ft | 24 kts | 266° |
| 2026-05-09 00:17 | 40.07770 | -83.06952 | 940 ft | 66 kts | 269° |
| 2026-05-09 00:17 | 40.07799 | -83.07563 | 1155 ft | 68 kts | 273° |
| 2026-05-09 00:17 | 40.07856 | -83.08221 | 1326 ft | 76 kts | 275° |
| 2026-05-09 00:17 | 40.07798 | -83.08877 | 1478 ft | 74 kts | 241° |
| 2026-05-09 00:18 | 40.07344 | -83.09147 | 1694 ft | 78 kts | 178° |
| 2026-05-09 00:18 | 40.06866 | -83.08692 | 1760 ft | 94 kts | 126° |
| 2026-05-09 00:18 | 40.06728 | -83.07863 | 1891 ft | 92 kts | 88° |
| 2026-05-09 00:18 | 40.06785 | -83.06999 | 1922 ft | 99 kts | 84° |
| 2026-05-09 00:19 | 40.06885 | -83.06079 | 1906 ft | 105 kts | 81° |
| 2026-05-09 00:19 | 40.06983 | -83.05160 | 1797 ft | 96 kts | 84° |
| 2026-05-09 00:19 | 40.07109 | -83.04393 | 1695 ft | 81 kts | 60° |
| 2026-05-09 00:19 | 40.07500 | -83.04003 | 1544 ft | 67 kts | 5° |
| 2026-05-09 00:20 | 40.07915 | -83.04190 | 1407 ft | 68 kts | 297° |
| 2026-05-09 00:20 | 40.07892 | -83.04738 | 1256 ft | 62 kts | 252° |
| 2026-05-09 00:20 | 40.07816 | -83.05304 | 1125 ft | 68 kts | 270° |
| 2026-05-09 00:20 | 40.07814 | -83.05908 | 1005 ft | 65 kts | 263° |
| 2026-05-09 00:21 | 40.07781 | -83.06493 | 904 ft | 60 kts | 266° |
| 2026-05-09 00:21 | 40.07768 | -83.06924 | 896 ft | 44 kts | 268° |
| 2026-05-09 00:21 | 40.07766 | -83.07465 | 1008 ft | 67 kts | 275° |
| 2026-05-09 00:21 | 40.07823 | -83.08091 | 1199 ft | 73 kts | 275° |
| 2026-05-09 00:22 | 40.07871 | -83.08757 | 1356 ft | 78 kts | 272° |
| 2026-05-09 00:22 | 40.07790 | -83.09444 | 1528 ft | 81 kts | 233° |
| 2026-05-09 00:22 | 40.07259 | -83.09722 | 1618 ft | 93 kts | 180° |
| 2026-05-09 00:22 | 40.06696 | -83.09254 | 1681 ft | 103 kts | 126° |
| 2026-05-09 00:23 | 40.06487 | -83.08372 | 1704 ft | 104 kts | 94° |
| 2026-05-09 00:23 | 40.06477 | -83.07436 | 1716 ft | 103 kts | 89° |
| 2026-05-09 00:23 | 40.06509 | -83.06491 | 1724 ft | 104 kts | 86° |
| 2026-05-09 00:23 | 40.06553 | -83.05563 | 1694 ft | 95 kts | 88° |
| 2026-05-09 00:24 | 40.06632 | -83.04789 | 1647 ft | 81 kts | 66° |
| 2026-05-09 00:24 | 40.07050 | -83.04315 | 1485 ft | 80 kts | 10° |
| 2026-05-09 00:24 | 40.07590 | -83.04383 | 1383 ft | 76 kts | 341° |
| 2026-05-09 00:24 | 40.08057 | -83.04565 | 1311 ft | 65 kts | 311° |
| 2026-05-09 00:25 | 40.08019 | -83.05104 | 1177 ft | 68 kts | 231° |
| 2026-05-09 00:25 | 40.07794 | -83.05606 | 1080 ft | 62 kts | 266° |
| 2026-05-09 00:25 | 40.07795 | -83.06191 | 958 ft | 65 kts | 264° |
| 2026-05-09 00:25 | 40.07776 | -83.06725 | 895 ft | 48 kts | 266° |
| 2026-05-09 00:26 | 40.07756 | -83.07025 | 898 ft | 24 kts | 265° |
| 2026-05-09 00:26 | 40.07750 | -83.07200 | 902 ft | 16 kts | 268° |
| 2026-05-09 00:26 | 40.07740 | -83.07329 | 904 ft | 11 kts | 234° |
| 2026-05-09 00:26 | 40.07673 | -83.07341 | 903 ft | 12 kts | 179° |
| 2026-05-09 00:27 | 40.07606 | -83.07351 | 902 ft | 6 kts | 261° |
| 2026-05-09 00:27 | 40.07608 | -83.07424 | 904 ft | 11 kts | 270° |
| 2026-05-09 00:27 | 40.07606 | -83.07543 | 905 ft | 14 kts | 269° |
| 2026-05-09 00:27 | 40.07576 | -83.07593 | 904 ft | 6 kts | 209° |
| 2026-05-09 00:28 | 40.07568 | -83.07619 | 904 ft | 0 kts | 262° |
| 2026-05-09 00:28 | 40.07568 | -83.07625 | 904 ft | 0 kts | 267° |